Time;durP1;ratioP1;P1;durP2;ratioP2;P2;SDS_P1;SDS_P2;PMS_P1;PMS_P2;Temp;Humidity;BMP_temperature;BMP_pressure;BME280_temperature;BME280_humidity;BME280_pressure;Samples;Min_cycle;Max_cycle;Signal;HPM_P1;HPM_P2
2021/07/30 03:21:33;;;;;;;19.67;11.90;;;14.60;99.90;;;;;;5606774;23;20485;-96
2021/07/30 03:43:37;;;;;;;16.02;10.00;;;15.40;99.90;;;;;;5305775;23;20447;-96
2021/07/30 03:51:56;;;;;;;16.48;10.32;;;15.40;99.90;;;;;;5350561;23;20435;-95
2021/07/30 03:54:42;;;;;;;14.70;9.57;;;15.30;99.90;;;;;;4957983;28;20429;-95
2021/07/30 03:57:48;;;;;;;15.50;10.50;;;15.30;99.90;;;;;;5286737;23;20439;-96
2021/07/30 04:00:32;;;;;;;14.40;9.90;;;15.50;99.90;;;;;;4962650;28;20496;-94
2021/07/30 04:03:47;;;;;;;15.10;11.00;;;15.40;99.90;;;;;;4961952;28;20419;-96
2021/07/30 04:21:11;;;;;;;16.13;11.65;;;15.30;99.90;;;;;;4968673;29;20464;-96
2021/07/30 04:27:44;;;;;;;19.20;11.50;;;15.50;99.90;;;;;;5034317;23;20439;-96
2021/07/30 04:30:48;;;;;;;18.70;12.40;;;15.50;99.90;;;;;;4963360;28;20829;-96
2021/07/30 04:33:48;;;;;;;20.70;11.68;;;15.50;99.90;;;;;;5011985;23;20442;-96
2021/07/30 04:39:38;;;;;;;19.63;12.63;;;15.60;99.90;;;;;;5150587;23;20437;-96
2021/07/30 04:59:04;;;;;;;17.13;12.17;;;15.60;99.90;;;;;;5288048;23;20937;-95
2021/07/30 05:02:12;;;;;;;17.67;12.10;;;15.70;99.90;;;;;;5239720;23;20779;31
2021/07/30 05:05:03;;;;;;;18.67;12.23;;;15.70;99.90;;;;;;4912929;29;20438;-96
2021/07/30 05:07:58;;;;;;;17.47;10.87;;;15.80;99.90;;;;;;4907554;29;20505;-96
2021/07/30 05:10:55;;;;;;;15.85;10.32;;;15.70;99.90;;;;;;4908141;29;20450;-95
2021/07/30 06:32:07;;;;;;;8.07;5.20;;;24.60;99.90;;;;;;6099144;23;20375;-96
2021/07/30 06:56:49;;;;;;;10.20;6.90;;;19.80;99.90;;;;;;6084337;23;21184;-96
2021/07/30 06:59:16;;;;;;;10.33;6.63;;;20.00;99.90;;;;;;4944122;29;20460;-95
2021/07/30 07:01:43;;;;;;;7.17;6.00;;;21.10;99.90;;;;;;4951384;29;20456;-95
2021/07/30 07:04:13;;;;;;;10.43;6.60;;;21.80;99.90;;;;;;4948483;29;20917;-95
2021/07/30 07:06:42;;;;;;;7.38;6.18;;;21.80;99.90;;;;;;4951403;29;20429;-96
2021/07/30 07:09:09;;;;;;;11.23;6.20;;;21.90;99.90;;;;;;4946836;29;20452;-96
2021/07/30 07:11:37;;;;;;;9.52;6.65;;;21.80;99.90;;;;;;4948880;29;20429;-96
2021/07/30 07:14:11;;;;;;;10.20;6.13;;;22.10;99.90;;;;;;4949895;29;20442;-96
2021/07/30 07:17:10;;;;;;;8.00;5.45;;;22.70;99.90;;;;;;4952405;29;20453;-95
2021/07/30 07:34:55;;;;;;;9.95;6.47;;;22.50;99.90;;;;;;3543682;23;20648;-95
2021/07/30 09:44:10;;;;;;;7.85;5.18;;;23.40;99.90;;;;;;5398176;23;20436;-94
2021/07/30 09:46:37;;;;;;;6.35;4.82;;;23.50;99.90;;;;;;4960820;28;20424;-95
2021/07/30 09:49:04;;;;;;;5.45;4.18;;;23.40;99.90;;;;;;4960185;28;20431;-95
2021/07/30 09:51:31;;;;;;;6.60;4.07;;;23.30;99.90;;;;;;4960231;28;20428;-96
2021/07/30 09:54:30;;;;;;;6.53;4.30;;;23.20;99.90;;;;;;4961666;28;20539;-96
2021/07/30 09:57:03;;;;;;;7.90;4.13;;;23.30;99.90;;;;;;5115304;23;20528;-94
2021/07/30 09:59:30;;;;;;;5.33;3.93;;;23.40;99.90;;;;;;4989480;23;20437;31
2021/07/30 10:02:40;;;;;;;5.53;4.03;;;23.80;99.90;;;;;;4942486;23;20444;-96
2021/07/30 10:05:40;;;;;;;7.53;4.80;;;23.80;99.90;;;;;;5105927;23;20435;-94
2021/07/30 10:08:17;;;;;;;7.07;4.88;;;23.80;99.90;;;;;;4984528;23;20448;-96
2021/07/30 10:11:13;;;;;;;6.85;4.68;;;23.50;99.90;;;;;;5053155;23;20480;-95
2021/07/30 10:14:40;;;;;;;6.20;4.63;;;23.40;99.90;;;;;;5169852;23;20435;-96
2021/07/30 10:18:00;;;;;;;6.72;4.20;;;23.10;99.90;;;;;;4994527;23;20447;-96
2021/07/30 10:20:45;;;;;;;6.43;4.38;;;23.10;99.90;;;;;;4976924;23;20440;-96
2021/07/30 10:23:16;;;;;;;6.82;4.38;;;23.20;99.90;;;;;;4975910;23;20457;-96
2021/07/30 10:26:23;;;;;;;6.43;4.30;;;23.30;99.90;;;;;;4979393;23;20523;-95
2021/07/30 10:29:07;;;;;;;5.47;4.50;;;23.20;99.90;;;;;;4973075;23;20988;-96
2021/07/30 10:31:50;;;;;;;8.47;4.03;;;23.20;99.90;;;;;;4979479;23;20461;-96
2021/07/30 10:34:38;;;;;;;5.03;4.00;;;23.30;99.90;;;;;;4951514;29;20493;-95
2021/07/30 10:37:37;;;;;;;6.80;4.45;;;23.40;99.90;;;;;;4923000;23;20472;-96
2021/07/30 10:43:49;;;;;;;5.95;4.38;;;23.90;99.90;;;;;;4946390;29;20419;-95
2021/07/30 10:46:41;;;;;;;7.47;4.28;;;23.90;99.90;;;;;;4947793;29;20434;-95
2021/07/30 10:49:39;;;;;;;6.32;4.60;;;23.80;99.90;;;;;;5004442;23;20417;-95
2021/07/30 10:52:38;;;;;;;6.25;4.57;;;23.80;99.90;;;;;;4954450;23;20421;-95
2021/07/30 10:58:21;;;;;;;8.35;4.50;;;23.80;99.90;;;;;;4901951;29;20475;-96
2021/07/30 11:10:32;;;;;;;5.83;4.50;;;24.30;99.90;;;;;;5310118;23;20463;-96
2021/07/30 11:15:41;;;;;;;5.75;4.28;;;24.60;99.90;;;;;;4976792;23;20441;-96
2021/07/30 11:18:19;;;;;;;7.38;4.10;;;24.70;99.90;;;;;;4968561;23;20450;-96
2021/07/30 11:21:06;;;;;;;6.97;4.18;;;24.70;99.90;;;;;;4929823;29;20530;-95
2021/07/30 11:23:50;;;;;;;6.45;4.65;;;24.70;99.90;;;;;;4948437;29;20469;-95
2021/07/30 11:26:20;;;;;;;7.60;4.50;;;24.80;99.90;;;;;;4944586;29;20418;-96
2021/07/30 11:28:59;;;;;;;6.22;4.63;;;25.00;99.90;;;;;;4943431;29;20486;-96
2021/07/30 11:31:56;;;;;;;7.40;4.20;;;24.90;99.90;;;;;;4945661;29;20480;-94
2021/07/30 11:38:10;;;;;;;10.05;4.50;;;25.00;99.90;;;;;;4919010;29;20487;-94
2021/07/30 11:40:39;;;;;;;5.30;4.20;;;25.10;99.90;;;;;;4944998;29;20503;-95
2021/07/30 11:43:09;;;;;;;8.02;4.70;;;25.10;99.90;;;;;;4947178;29;20435;-94
2021/07/30 11:45:37;;;;;;;8.38;4.88;;;25.20;99.90;;;;;;4960638;29;20423;-95
2021/07/30 11:48:11;;;;;;;8.75;4.45;;;25.40;99.90;;;;;;4946446;29;20423;-95
2021/07/30 11:50:40;;;;;;;7.18;4.90;;;25.70;99.90;;;;;;4944291;29;20427;-95
2021/07/30 11:53:11;;;;;;;6.78;4.55;;;25.90;99.90;;;;;;4951674;29;20439;-94
2021/07/30 11:55:38;;;;;;;8.23;4.70;;;26.20;99.90;;;;;;4949302;29;20435;-96
2021/07/30 11:58:11;;;;;;;8.27;4.53;;;26.30;99.90;;;;;;4942707;29;20428;-96
2021/07/30 12:00:39;;;;;;;6.33;4.53;;;26.50;99.90;;;;;;4943380;29;20443;-95
2021/07/30 12:03:21;;;;;;;7.60;4.25;;;26.80;99.90;;;;;;4940587;29;20427;-96
2021/07/30 12:05:52;;;;;;;6.53;4.07;;;27.00;99.90;;;;;;4940444;29;21046;-95
2021/07/30 12:08:23;;;;;;;10.57;4.45;;;27.30;99.90;;;;;;4943294;29;20420;-94
2021/07/30 12:10:54;;;;;;;6.72;4.22;;;27.20;97.80;;;;;;4941427;28;20435;-94
2021/07/30 12:13:23;;;;;;;9.32;4.13;;;27.40;98.70;;;;;;4940953;29;20435;-94
2021/07/30 12:15:50;;;;;;;7.35;4.38;;;27.50;97.00;;;;;;4940094;29;20783;-94
2021/07/30 12:18:18;;;;;;;7.07;4.50;;;27.40;96.30;;;;;;4938243;29;20454;-96
2021/07/30 12:20:47;;;;;;;7.10;4.50;;;27.50;97.90;;;;;;4938460;29;20798;-96
2021/07/30 12:23:20;;;;;;;8.18;4.40;;;27.60;96.00;;;;;;4937983;29;20428;-96
2021/07/30 12:25:52;;;;;;;6.60;4.53;;;27.80;99.90;;;;;;4937983;29;20462;-96
2021/07/30 12:28:21;;;;;;;6.15;4.22;;;28.10;96.70;;;;;;4938636;29;20915;-94
2021/07/30 12:30:53;;;;;;;4.57;3.72;;;28.10;96.10;;;;;;4938015;29;21007;-96
2021/07/30 12:33:38;;;;;;;6.65;4.25;;;28.30;99.30;;;;;;4944265;29;20460;-95
2021/07/30 12:36:16;;;;;;;6.63;4.22;;;28.30;95.20;;;;;;4939465;29;20447;-94
2021/07/30 12:39:02;;;;;;;8.82;4.45;;;28.70;96.50;;;;;;4938044;29;20427;-96
2021/07/30 12:41:30;;;;;;;7.60;4.28;;;28.70;94.80;;;;;;4937345;29;20535;-94
2021/07/30 12:44:18;;;;;;;5.57;4.00;;;28.70;93.90;;;;;;4938024;29;20434;-95
2021/07/30 12:46:57;;;;;;;6.40;4.38;;;28.90;94.40;;;;;;4938875;29;20436;-95
2021/07/30 12:49:34;;;;;;;5.60;3.75;;;29.20;94.10;;;;;;4939575;29;20423;-96
2021/07/30 12:52:14;;;;;;;5.20;3.67;;;29.40;92.10;;;;;;4938783;29;20439;-96
2021/07/30 12:54:41;;;;;;;4.57;4.03;;;29.40;92.00;;;;;;4938568;29;20439;-96
2021/07/30 12:57:08;;;;;;;5.17;3.67;;;29.60;93.60;;;;;;4936941;29;20428;-96
2021/07/30 12:59:52;;;;;;;4.90;3.88;;;29.80;91.50;;;;;;4937433;29;20915;-96
2021/07/30 13:02:30;;;;;;;8.57;3.90;;;29.70;91.40;;;;;;4937647;29;20462;-96
2021/07/30 13:04:58;;;;;;;5.03;3.88;;;29.60;90.40;;;;;;4938637;29;20427;-94
2021/07/30 13:07:29;;;;;;;5.00;3.97;;;29.50;90.80;;;;;;4938555;29;20466;-95
2021/07/30 13:09:57;;;;;;;6.20;4.10;;;29.60;90.40;;;;;;4938176;29;20439;-95
2021/07/30 13:12:24;;;;;;;6.95;3.92;;;29.70;90.10;;;;;;4936880;29;20428;-95
2021/07/30 13:14:52;;;;;;;4.20;3.70;;;29.60;87.40;;;;;;4936582;29;20436;-95
2021/07/30 13:17:19;;;;;;;7.43;3.78;;;29.70;90.00;;;;;;4937355;29;20441;-94
2021/07/30 13:19:46;;;;;;;4.77;3.87;;;29.90;90.00;;;;;;4937245;29;20454;-94
2021/07/30 13:22:13;;;;;;;4.55;3.80;;;30.20;86.30;;;;;;4936403;29;20457;-95
2021/07/30 13:24:40;;;;;;;5.18;3.97;;;30.10;88.00;;;;;;4950889;29;20407;-94
2021/07/30 13:27:07;;;;;;;6.47;3.97;;;30.10;91.20;;;;;;4948084;29;20438;-93
2021/07/30 13:29:34;;;;;;;4.38;3.97;;;30.50;87.70;;;;;;4936764;29;20787;-93
2021/07/30 13:32:03;;;;;;;7.53;4.10;;;30.60;86.60;;;;;;4938595;29;20514;-92
2021/07/30 13:34:36;;;;;;;5.47;4.00;;;30.50;86.20;;;;;;4936380;29;20497;-96
2021/07/30 13:37:03;;;;;;;8.90;4.50;;;30.20;84.80;;;;;;4943314;29;20447;-93
2021/07/30 13:39:31;;;;;;;5.60;4.10;;;30.10;85.20;;;;;;4944452;29;20436;-94
2021/07/30 13:41:58;;;;;;;5.55;4.13;;;30.20;87.20;;;;;;4939889;29;20462;-94
2021/07/30 13:44:25;;;;;;;7.57;4.63;;;30.30;86.00;;;;;;4942828;29;20915;-95
2021/07/30 13:46:52;;;;;;;6.43;4.60;;;30.10;84.90;;;;;;4944668;29;20530;-95
2021/07/30 13:49:19;;;;;;;8.27;4.50;;;30.30;87.60;;;;;;4945901;29;20414;-94
2021/07/30 13:51:46;;;;;;;5.47;4.25;;;30.50;86.00;;;;;;4943316;29;20511;-94
2021/07/30 13:54:13;;;;;;;6.30;4.05;;;30.40;88.90;;;;;;4942107;29;20462;-93
2021/07/30 13:56:40;;;;;;;15.32;5.32;;;30.50;85.70;;;;;;4940502;29;20435;-93
2021/07/30 13:59:07;;;;;;;6.97;4.78;;;30.60;85.40;;;;;;4942484;29;20513;-94
2021/07/30 14:01:34;;;;;;;6.53;4.28;;;30.60;85.60;;;;;;4944044;29;20455;-95
2021/07/30 14:04:15;;;;;;;7.18;4.53;;;30.50;85.40;;;;;;4945224;29;20438;-96
2021/07/30 14:06:42;;;;;;;6.53;4.53;;;30.00;86.30;;;;;;4948707;29;20926;-96
2021/07/30 14:09:09;;;;;;;6.53;4.45;;;29.50;89.10;;;;;;4942227;29;20490;-96
2021/07/30 14:11:40;;;;;;;6.22;4.30;;;29.70;89.80;;;;;;4940593;29;20518;-96
2021/07/30 14:14:18;;;;;;;5.28;4.28;;;30.40;89.40;;;;;;4937940;29;20510;-96
2021/07/30 14:16:48;;;;;;;8.32;4.45;;;30.60;84.30;;;;;;4938010;29;20494;-96
2021/07/30 14:19:15;;;;;;;6.30;4.30;;;30.90;84.90;;;;;;4939805;29;20438;-96
2021/07/30 14:21:42;;;;;;;6.90;4.20;;;31.20;82.20;;;;;;4945290;29;20561;-95
2021/07/30 14:24:09;;;;;;;6.43;4.40;;;31.70;85.90;;;;;;4962545;23;20438;-94
2021/07/30 14:27:20;;;;;;;5.45;3.97;;;32.30;83.50;;;;;;4957428;28;20441;-96
2021/07/30 14:32:49;;;;;;;5.20;4.22;;;31.80;82.00;;;;;;5925420;23;20437;-96
2021/07/30 14:38:22;;;;;;;9.35;3.83;;;31.70;81.20;;;;;;5021061;23;20438;-96
2021/07/30 14:41:01;;;;;;;7.68;4.35;;;31.50;79.70;;;;;;4960771;28;20496;-92
2021/07/30 14:43:28;;;;;;;8.60;4.25;;;30.40;78.50;;;;;;4942844;29;20429;-94
2021/07/30 14:46:00;;;;;;;5.30;4.80;;;29.70;81.80;;;;;;4943677;29;20443;-94
2021/07/30 14:48:33;;;;;;;9.95;4.68;;;29.70;87.10;;;;;;4943539;29;20453;-94
2021/07/30 14:51:03;;;;;;;5.97;4.45;;;30.10;85.60;;;;;;4928518;29;20422;-94
2021/07/30 14:53:31;;;;;;;8.60;4.75;;;30.30;83.90;;;;;;4942652;29;20436;-96
2021/07/30 14:55:58;;;;;;;5.53;4.57;;;29.90;82.50;;;;;;4942410;29;20433;-95
2021/07/30 14:58:25;;;;;;;7.53;4.60;;;29.50;83.30;;;;;;4942280;29;20432;-94
2021/07/30 15:00:52;;;;;;;8.40;4.73;;;29.40;84.60;;;;;;4942571;29;20441;-93
2021/07/30 15:03:19;;;;;;;6.25;4.45;;;29.50;83.60;;;;;;4942061;29;20469;-93
2021/07/30 15:05:46;;;;;;;5.30;4.32;;;29.80;83.00;;;;;;4961622;28;20434;-93
2021/07/30 15:08:13;;;;;;;5.20;4.30;;;29.80;82.00;;;;;;4947657;29;20425;-93
2021/07/30 15:10:44;;;;;;;6.63;4.63;;;29.00;81.30;;;;;;4941771;29;20429;-94
2021/07/30 15:13:11;;;;;;;8.40;4.43;;;28.50;85.90;;;;;;4942421;29;20514;-95
2021/07/30 15:15:41;;;;;;;9.10;4.78;;;28.00;80.20;;;;;;4941673;29;20496;-93
2021/07/30 15:18:09;;;;;;;5.97;4.63;;;27.80;84.10;;;;;;4941718;29;20432;-94
2021/07/30 15:20:40;;;;;;;6.50;4.38;;;28.00;79.60;;;;;;4941787;29;20438;-93
2021/07/30 15:23:08;;;;;;;7.30;4.45;;;28.50;82.10;;;;;;4942306;29;20430;-93
2021/07/30 15:25:35;;;;;;;5.90;4.53;;;28.90;79.40;;;;;;4941620;29;20433;-93
2021/07/30 15:28:03;;;;;;;6.97;4.40;;;29.00;82.20;;;;;;4942003;29;20437;-93
2021/07/30 15:30:30;;;;;;;6.53;4.43;;;29.20;78.50;;;;;;4942016;29;20430;-93
2021/07/30 15:32:57;;;;;;;7.72;4.50;;;29.10;79.40;;;;;;4942183;29;20964;-93
2021/07/30 15:35:23;;;;;;;5.30;4.55;;;28.70;77.10;;;;;;4941670;29;20438;-93
2021/07/30 15:37:50;;;;;;;6.10;4.32;;;28.40;77.20;;;;;;4941569;29;20437;-92
2021/07/30 15:40:17;;;;;;;8.60;4.45;;;28.40;77.70;;;;;;4942202;29;20433;-88
2021/07/30 15:42:44;;;;;;;7.03;4.35;;;28.50;80.90;;;;;;4942494;29;20532;-93
2021/07/30 15:45:12;;;;;;;5.35;4.70;;;28.90;76.90;;;;;;4959239;29;20438;-87
2021/07/30 15:47:39;;;;;;;6.07;4.55;;;29.10;84.10;;;;;;4959715;29;20426;-87
2021/07/30 15:50:07;;;;;;;5.95;4.53;;;29.40;81.90;;;;;;4942655;29;20448;-87
2021/07/30 15:52:34;;;;;;;8.35;4.68;;;29.90;77.40;;;;;;4957728;28;20490;-87
2021/07/30 15:55:06;;;;;;;7.10;4.97;;;30.10;76.70;;;;;;4940672;29;20508;-87
2021/07/30 15:57:34;;;;;;;8.45;4.40;;;30.20;75.30;;;;;;4958633;29;20418;-87
2021/07/30 16:00:03;;;;;;;5.17;4.40;;;29.70;75.00;;;;;;4941213;29;20433;-87
2021/07/30 16:03:15;;;;;;;6.47;4.30;;;29.00;76.30;;;;;;4941960;29;20444;-95
2021/07/30 16:06:37;;;;;;;9.68;4.72;;;28.40;76.00;;;;;;4854862;29;20437;-96
2021/07/30 16:09:36;;;;;;;7.13;4.97;;;27.60;80.60;;;;;;4812762;29;20478;-96
2021/07/30 16:16:46;;;;;;;7.00;4.85;;;26.90;83.50;;;;;;4744904;30;20500;-96
2021/07/30 16:25:24;;;;;;;6.32;4.80;;;28.30;83.10;;;;;;4626437;31;20921;-96
2021/07/30 16:28:32;;;;;;;8.20;4.90;;;28.70;80.40;;;;;;4626402;31;20448;-96
2021/07/30 16:31:40;;;;;;;7.10;4.50;;;28.90;80.40;;;;;;4625208;31;20440;-96
2021/07/30 16:34:25;;;;;;;8.95;4.80;;;28.90;76.70;;;;;;4604879;31;20456;-95
2021/07/30 16:37:45;;;;;;;;;;;;;;;;;;;;;
2021/07/30 16:40:52;;;;;;;7.50;4.53;;;27.90;80.90;;;;;;4874898;29;20434;-96
2021/07/30 16:43:44;;;;;;;6.70;4.50;;;28.10;85.50;;;;;;4840760;29;20426;-96
2021/07/30 16:46:39;;;;;;;;;;;;;;;;;;;;;
2021/07/30 16:49:09;;;;;;;6.57;4.70;;;28.90;79.50;;;;;;4867597;29;20854;-96
2021/07/30 16:51:57;;;;;;;8.98;4.75;;;29.30;77.30;;;;;;4865268;29;20414;-96
2021/07/30 16:54:54;;;;;;;6.80;4.60;;;29.30;78.30;;;;;;4866774;29;20465;-96
2021/07/30 16:57:28;;;;;;;6.70;4.90;;;28.90;81.00;;;;;;4849479;29;20461;-96
2021/07/30 17:00:03;;;;;;;11.77;4.88;;;28.30;81.10;;;;;;4862676;29;20517;-96
2021/07/30 17:02:34;;;;;;;8.13;5.00;;;28.20;84.50;;;;;;4862742;29;20458;-96
2021/07/30 17:05:13;;;;;;;7.05;4.95;;;28.50;83.00;;;;;;4864348;29;20534;-96
2021/07/30 17:07:53;;;;;;;8.93;4.97;;;28.80;78.10;;;;;;4862502;29;20445;-96
2021/07/30 17:10:26;;;;;;;9.80;5.00;;;28.90;79.20;;;;;;4897495;29;20430;-96
2021/07/30 17:13:05;;;;;;;6.68;4.70;;;29.10;78.30;;;;;;4941761;29;20437;-96
2021/07/30 17:15:38;;;;;;;6.70;4.63;;;29.10;79.90;;;;;;4944650;29;20437;-96
2021/07/30 17:18:08;;;;;;;6.95;4.78;;;28.90;79.00;;;;;;4943554;29;20457;-96
2021/07/30 17:20:52;;;;;;;5.72;4.97;;;28.70;80.20;;;;;;4943735;29;20433;-96
2021/07/30 17:23:19;;;;;;;6.05;4.75;;;28.20;80.90;;;;;;4943349;29;20430;-96
2021/07/30 17:25:55;;;;;;;7.83;5.10;;;27.90;86.60;;;;;;4943088;29;20818;-96
2021/07/30 17:28:47;;;;;;;6.60;4.93;;;27.80;88.60;;;;;;4944766;29;20480;-96
2021/07/30 17:31:20;;;;;;;7.25;5.00;;;27.60;91.30;;;;;;4945948;29;20454;-96
2021/07/30 17:34:06;;;;;;;8.52;4.65;;;27.60;89.80;;;;;;4947600;29;20758;-95
2021/07/30 17:36:47;;;;;;;8.13;4.78;;;27.60;88.10;;;;;;4948255;29;20444;-96
2021/07/30 17:49:23;;;;;;;6.40;4.80;;;26.60;93.80;;;;;;5435837;23;20847;-95
2021/07/30 17:51:51;;;;;;;8.53;5.47;;;26.00;94.50;;;;;;4963365;28;20439;-96
2021/07/30 17:54:18;;;;;;;8.20;5.13;;;25.70;95.00;;;;;;4961198;28;20445;-95
2021/07/30 17:56:45;;;;;;;10.33;5.23;;;25.10;95.80;;;;;;4960575;28;20435;-96
2021/07/30 17:59:13;;;;;;;6.37;5.63;;;24.50;96.90;;;;;;4961901;28;20467;-95
2021/07/30 18:01:40;;;;;;;9.35;5.70;;;24.00;98.70;;;;;;4944789;28;20495;-95
2021/07/30 18:04:08;;;;;;;9.18;5.82;;;23.40;99.90;;;;;;4963930;28;20424;-96
2021/07/30 18:06:37;;;;;;;7.37;6.10;;;23.00;99.90;;;;;;4943873;28;20923;-95
2021/07/30 18:09:22;;;;;;;11.35;6.05;;;22.70;99.90;;;;;;4961383;28;20938;-96
2021/07/30 18:11:49;;;;;;;9.05;6.28;;;22.20;99.90;;;;;;4959894;28;20424;-95
2021/07/30 18:14:34;;;;;;;10.25;6.63;;;21.80;99.90;;;;;;4961962;28;20451;-96
2021/07/30 18:17:03;;;;;;;10.88;6.45;;;21.50;99.90;;;;;;4966579;28;20430;-95
2021/07/30 18:19:30;;;;;;;9.60;6.75;;;21.30;99.90;;;;;;4962163;28;20438;-95
2021/07/30 18:21:57;;;;;;;10.93;6.83;;;21.10;99.90;;;;;;4962967;28;20447;-95
2021/07/30 18:24:24;;;;;;;9.18;6.88;;;20.90;99.90;;;;;;4962856;28;20775;-95
2021/07/30 18:26:51;;;;;;;7.80;6.80;;;20.70;99.90;;;;;;4982039;28;20432;-96
2021/07/30 18:29:36;;;;;;;10.63;6.43;;;20.50;99.90;;;;;;4966375;28;20395;-95
2021/07/30 18:32:03;;;;;;;14.85;7.10;;;20.40;99.90;;;;;;4944325;29;20435;-96
2021/07/30 18:34:50;;;;;;;16.75;7.28;;;20.30;99.90;;;;;;4932661;29;20453;-94
2021/07/30 18:37:18;;;;;;;15.85;7.72;;;20.10;99.90;;;;;;4942811;29;20425;-96
2021/07/30 18:39:45;;;;;;;18.88;7.70;;;20.00;99.90;;;;;;4944555;29;20433;-96
2021/07/30 18:42:12;;;;;;;25.75;7.72;;;19.90;99.90;;;;;;4974470;28;20723;-94
2021/07/30 18:44:39;;;;;;;22.48;8.15;;;19.80;99.90;;;;;;4974224;28;20437;-95
2021/07/30 18:47:06;;;;;;;16.48;8.10;;;19.70;99.90;;;;;;4974697;28;20429;-96
2021/07/30 18:49:36;;;;;;;15.97;7.50;;;19.60;99.90;;;;;;4975982;28;20445;-95
2021/07/30 18:52:04;;;;;;;11.87;7.17;;;19.60;99.90;;;;;;4974117;28;20440;-94
2021/07/30 18:54:32;;;;;;;10.13;6.60;;;19.80;99.90;;;;;;4974565;28;20425;-95
2021/07/30 18:57:00;;;;;;;12.60;6.70;;;19.80;99.90;;;;;;4974401;28;20444;-95
2021/07/30 19:03:07;;;;;;;8.30;6.50;;;20.10;99.90;;;;;;4941079;29;20440;-94
2021/07/30 19:06:19;;;;;;;11.03;6.27;;;20.00;99.90;;;;;;4878154;29;20578;-94
2021/07/30 19:09:58;;;;;;;10.65;6.50;;;19.90;99.90;;;;;;4924049;29;20412;-94
2021/07/30 19:13:17;;;;;;;9.60;6.50;;;19.70;99.90;;;;;;4847107;29;20658;-94
2021/07/30 19:17:06;;;;;;;12.93;6.78;;;19.50;99.90;;;;;;4797393;29;20422;-94
2021/07/30 19:20:30;;;;;;;10.85;6.35;;;19.40;99.90;;;;;;4810402;29;20426;-93
2021/07/30 19:23:40;;;;;;;12.65;6.72;;;19.20;99.90;;;;;;4740061;30;20499;-94
2021/07/30 19:26:53;;;;;;;13.60;6.63;;;19.20;99.90;;;;;;4699630;30;20513;-93
2021/07/30 19:29:37;;;;;;;9.00;6.47;;;19.20;99.90;;;;;;4702316;30;20524;-93
2021/07/30 19:32:34;;;;;;;11.80;6.70;;;19.20;99.90;;;;;;4706092;30;20463;-92
2021/07/30 19:36:18;;;;;;;9.95;6.80;;;19.30;99.90;;;;;;4720060;30;20515;-93
2021/07/30 19:39:33;;;;;;;8.38;6.40;;;19.30;99.90;;;;;;4686147;30;20470;-93
2021/07/30 19:42:22;;;;;;;11.05;7.10;;;19.20;99.90;;;;;;4686931;30;20501;-94
2021/07/30 19:45:09;;;;;;;8.45;7.05;;;19.00;99.90;;;;;;4671078;30;20496;-93
2021/07/30 19:47:49;;;;;;;13.10;7.17;;;18.90;99.90;;;;;;4669585;30;20443;-93
2021/07/30 19:51:05;;;;;;;8.85;7.15;;;19.00;99.90;;;;;;4702089;30;20555;-93
2021/07/30 19:53:42;;;;;;;8.48;6.97;;;19.00;99.90;;;;;;4744294;30;20782;-93
2021/07/30 19:57:11;;;;;;;12.23;6.72;;;18.80;99.90;;;;;;4754067;30;20813;-92
2021/07/30 20:01:13;;;;;;;10.77;7.03;;;18.80;99.90;;;;;;4780867;29;20499;-94
2021/07/30 20:05:04;;;;;;;8.82;6.63;;;18.80;99.90;;;;;;4728184;30;20438;-93
2021/07/30 20:08:18;;;;;;;11.45;7.10;;;19.00;99.90;;;;;;4738039;30;20522;-93
2021/07/30 20:11:08;;;;;;;10.25;6.80;;;19.10;99.90;;;;;;4670732;30;20440;-93
2021/07/30 20:14:45;;;;;;;10.15;6.78;;;19.10;99.90;;;;;;4709597;30;20497;-92
2021/07/30 20:17:40;;;;;;;8.90;6.53;;;19.30;99.90;;;;;;4749298;30;20440;-92
2021/07/30 20:20:59;;;;;;;11.48;6.75;;;19.50;99.90;;;;;;4766485;30;20937;-93
2021/07/30 20:24:00;;;;;;;10.67;6.43;;;19.80;99.90;;;;;;4790535;30;20431;-93
2021/07/30 20:27:34;;;;;;;12.90;6.50;;;19.70;99.90;;;;;;4772890;30;20411;-93
2021/07/30 20:30:43;;;;;;;10.27;6.57;;;19.70;99.90;;;;;;4755576;30;20419;-93
2021/07/30 20:34:27;;;;;;;9.87;6.43;;;20.00;99.90;;;;;;4721068;30;20541;-94
2021/07/30 20:37:43;;;;;;;11.20;6.97;;;19.80;99.90;;;;;;4708257;30;21071;-93
2021/07/30 20:41:09;;;;;;;12.27;6.70;;;19.70;99.90;;;;;;4785123;29;20525;-93
2021/07/30 21:13:48;;;;;;;9.93;6.95;;;19.50;99.90;;;;;;2107096;23;20613;-96
2021/07/30 21:16:16;;;;;;;11.30;7.10;;;19.90;99.90;;;;;;4984580;23;20904;-95
2021/07/30 21:18:44;;;;;;;13.60;7.68;;;20.00;99.90;;;;;;4943816;29;20435;-95
2021/07/30 21:27:43;;;;;;;7.90;4.05;;;18.80;99.90;;;;;;5497364;23;20420;-95
2021/07/30 21:33:59;;;;;;;6.53;3.92;;;18.40;99.90;;;;;;4909259;29;20435;-96
2021/07/30 21:36:33;;;;;;;7.40;4.15;;;18.30;99.90;;;;;;4888304;29;20442;-96
2021/07/30 21:39:27;;;;;;;7.00;4.05;;;18.10;99.90;;;;;;4894778;29;20903;-96
2021/07/30 21:41:56;;;;;;;7.83;4.10;;;18.00;99.90;;;;;;4892230;29;20930;-96
2021/07/30 21:44:32;;;;;;;5.75;3.17;;;17.60;99.90;;;;;;4890162;29;20506;-96
2021/07/30 21:54:16;;;;;;;6.20;2.40;;;16.30;99.90;;;;;;4998828;23;20999;-96
2021/07/30 21:56:58;;;;;;;5.40;2.75;;;15.80;99.90;;;;;;4948294;29;20426;-96
2021/07/30 22:15:23;;;;;;;12.20;5.10;;;15.00;99.90;;;;;;887382;23;22150;-96
